Time;durP1;ratioP1;P1;durP2;ratioP2;P2;SDS_P1;SDS_P2;PMS_P1;PMS_P2;Temp;Humidity;BMP_temperature;BMP_pressure;BME280_temperature;BME280_humidity;BME280_pressure;Samples;Min_cycle;Max_cycle;Signal;HPM_P1;HPM_P2
2023/08/09 00:01:34;;;;;;;1.70;1.60;;;;;;;;;;5081681;28;20402;-80
2023/08/09 00:04:00;;;;;;;1.77;1.60;;;;;;;;;;5082723;28;20383;-80
2023/08/09 00:06:26;;;;;;;2.30;1.50;;;;;;;;;;5094073;28;20382;-80
2023/08/09 00:08:52;;;;;;;1.92;1.52;;;;;;;;;;5086765;28;20380;-80
2023/08/09 00:11:18;;;;;;;1.90;1.60;;;;;;;;;;5081454;28;20477;-80
2023/08/09 00:13:44;;;;;;;2.17;1.60;;;;;;;;;;5081750;28;20463;-80
2023/08/09 00:16:10;;;;;;;1.60;1.30;;;;;;;;;;5082452;28;20387;-79
2023/08/09 00:18:36;;;;;;;1.83;1.50;;;;;;;;;;5081157;28;20383;-79
2023/08/09 00:21:02;;;;;;;2.15;1.58;;;;;;;;;;5094797;28;20401;-79
2023/08/09 00:23:28;;;;;;;2.65;1.70;;;;;;;;;;5080380;28;20744;-80
2023/08/09 00:25:55;;;;;;;2.22;1.52;;;;;;;;;;5080308;28;20383;-79
2023/08/09 00:28:21;;;;;;;2.85;1.73;;;;;;;;;;5095033;28;20466;-80
2023/08/09 00:30:47;;;;;;;1.63;1.47;;;;;;;;;;5081549;28;20411;-80
2023/08/09 00:33:13;;;;;;;2.30;1.63;;;;;;;;;;5095161;28;20785;-80
2023/08/09 00:35:39;;;;;;;1.83;1.60;;;;;;;;;;5080967;28;20388;-80
2023/08/09 00:38:05;;;;;;;1.65;1.50;;;;;;;;;;5079745;28;20376;-79
2023/08/09 00:40:31;;;;;;;1.83;1.65;;;;;;;;;;5079337;28;20384;-79
2023/08/09 00:42:57;;;;;;;2.05;1.60;;;;;;;;;;5078990;28;20392;-80
2023/08/09 00:45:23;;;;;;;1.63;1.50;;;;;;;;;;5078968;28;20383;-80
2023/08/09 00:47:49;;;;;;;2.73;1.57;;;;;;;;;;5078968;28;20411;-80
2023/08/09 00:50:16;;;;;;;1.52;1.42;;;;;;;;;;5092908;28;20470;-79
2023/08/09 00:52:42;;;;;;;1.75;1.65;;;;;;;;;;5077911;28;20880;-80
2023/08/09 00:55:08;;;;;;;2.28;1.75;;;;;;;;;;5093572;28;20437;-80
2023/08/09 00:57:34;;;;;;;2.38;1.75;;;;;;;;;;5087957;28;20387;-80
2023/08/09 01:00:00;;;;;;;2.00;1.50;;;;;;;;;;5082636;28;20379;-80
2023/08/09 01:02:27;;;;;;;2.53;2.08;;;;;;;;;;5082154;28;20423;-80
2023/08/09 01:04:53;;;;;;;2.20;1.85;;;;;;;;;;5081835;28;20416;-80
2023/08/09 01:07:34;;;;;;;2.70;2.20;;;;;;;;;;5082705;28;20916;-80
2023/08/09 01:10:00;;;;;;;2.20;2.00;;;;;;;;;;5081982;28;20415;-80
2023/08/09 01:12:30;;;;;;;2.10;1.90;;;;;;;;;;5065198;28;20391;-80
2023/08/09 01:14:59;;;;;;;2.25;2.00;;;;;;;;;;5092638;28;20686;-80
2023/08/09 01:17:27;;;;;;;2.00;1.80;;;;;;;;;;5081926;28;20395;-80
2023/08/09 01:19:54;;;;;;;2.22;2.00;;;;;;;;;;5086808;28;20381;-80
2023/08/09 01:22:31;;;;;;;2.15;1.95;;;;;;;;;;5093244;28;20380;-81
2023/08/09 01:25:06;;;;;;;2.30;1.90;;;;;;;;;;5087728;28;20465;-81
2023/08/09 01:27:32;;;;;;;3.20;2.10;;;;;;;;;;5086176;28;20382;-81
2023/08/09 01:29:59;;;;;;;1.77;1.60;;;;;;;;;;5090051;28;20406;-81
2023/08/09 01:32:26;;;;;;;1.77;1.45;;;;;;;;;;5093344;28;20407;-81
2023/08/09 01:34:52;;;;;;;2.38;1.92;;;;;;;;;;5080170;28;20386;-81
2023/08/09 01:37:27;;;;;;;2.10;1.90;;;;;;;;;;5083593;28;20391;-81
2023/08/09 01:39:55;;;;;;;2.03;1.67;;;;;;;;;;5097802;28;20862;-81
2023/08/09 01:42:21;;;;;;;1.60;1.50;;;;;;;;;;5084175;28;20447;-81
2023/08/09 01:44:47;;;;;;;2.80;1.52;;;;;;;;;;5083853;28;20380;-81
2023/08/09 01:47:14;;;;;;;2.20;1.80;;;;;;;;;;5082414;28;20387;-81
2023/08/09 01:49:47;;;;;;;2.70;1.80;;;;;;;;;;5083715;28;20404;-81
2023/08/09 01:52:13;;;;;;;1.95;1.60;;;;;;;;;;5083489;28;20407;-81
2023/08/09 01:54:40;;;;;;;2.00;1.70;;;;;;;;;;5094677;28;20908;-81
2023/08/09 01:57:06;;;;;;;2.00;1.80;;;;;;;;;;5100098;28;20449;-81
2023/08/09 01:59:32;;;;;;;1.90;1.80;;;;;;;;;;5091770;28;20379;-81
2023/08/09 02:01:58;;;;;;;2.08;1.83;;;;;;;;;;5100960;28;20870;-81
2023/08/09 02:04:24;;;;;;;1.97;1.70;;;;;;;;;;5100582;28;20382;-81
2023/08/09 02:06:50;;;;;;;2.25;1.65;;;;;;;;;;5091379;28;20410;-81
2023/08/09 02:09:16;;;;;;;2.08;1.67;;;;;;;;;;5078248;28;20451;-81
2023/08/09 02:11:42;;;;;;;1.67;1.58;;;;;;;;;;5083839;28;20447;-81
2023/08/09 02:14:08;;;;;;;1.80;1.70;;;;;;;;;;5085208;28;20375;-81
2023/08/09 02:16:34;;;;;;;1.93;1.60;;;;;;;;;;5083932;28;20724;-81
2023/08/09 02:19:00;;;;;;;1.70;1.60;;;;;;;;;;5099363;28;20374;-81
2023/08/09 02:21:29;;;;;;;1.77;1.60;;;;;;;;;;5078663;28;20394;-81
2023/08/09 02:23:55;;;;;;;1.58;1.48;;;;;;;;;;5083239;28;20463;-81
2023/08/09 02:26:21;;;;;;;2.92;1.63;;;;;;;;;;5092337;28;20420;-81
2023/08/09 02:28:48;;;;;;;2.38;1.58;;;;;;;;;;5099738;28;20388;-81
2023/08/09 02:31:15;;;;;;;1.80;1.40;;;;;;;;;;5101861;28;20404;-81
2023/08/09 02:33:42;;;;;;;1.60;1.50;;;;;;;;;;5095656;28;20408;-81
2023/08/09 02:36:08;;;;;;;1.95;1.52;;;;;;;;;;5082440;28;20384;-81
2023/08/09 02:38:34;;;;;;;3.15;2.45;;;;;;;;;;5086296;28;20381;-81
2023/08/09 02:41:00;;;;;;;2.10;1.90;;;;;;;;;;5103064;28;20378;-81
2023/08/09 02:43:27;;;;;;;2.08;1.88;;;;;;;;;;5102774;28;20805;-81
2023/08/09 02:45:53;;;;;;;2.00;1.80;;;;;;;;;;5102392;28;20397;-81
2023/08/09 02:48:20;;;;;;;2.20;1.80;;;;;;;;;;5102310;28;20436;-81
2023/08/09 02:50:46;;;;;;;1.85;1.50;;;;;;;;;;5102220;28;20959;-81
2023/08/09 02:53:12;;;;;;;2.00;1.70;;;;;;;;;;5102796;28;20890;-81
2023/08/09 02:55:39;;;;;;;3.05;1.58;;;;;;;;;;5095497;28;20382;-81
2023/08/09 02:58:05;;;;;;;2.90;1.70;;;;;;;;;;5102635;28;20454;-81
2023/08/09 03:00:34;;;;;;;2.20;1.63;;;;;;;;;;5102826;28;20378;-81
2023/08/09 03:03:00;;;;;;;1.65;1.48;;;;;;;;;;5092318;28;20384;-80
2023/08/09 03:05:30;;;;;;;2.70;1.50;;;;;;;;;;5086061;28;20392;-81
2023/08/09 03:07:56;;;;;;;3.73;1.80;;;;;;;;;;5100050;28;20378;-81
2023/08/09 03:10:22;;;;;;;1.73;1.55;;;;;;;;;;5102175;28;20410;-81
2023/08/09 03:12:48;;;;;;;2.42;2.00;;;;;;;;;;5089068;28;20830;-81
2023/08/09 03:15:15;;;;;;;1.70;1.50;;;;;;;;;;5081522;28;20445;-81
2023/08/09 03:17:41;;;;;;;1.85;1.55;;;;;;;;;;5081790;28;20721;-80
2023/08/09 03:20:13;;;;;;;1.58;1.40;;;;;;;;;;5084125;28;20372;-81
2023/08/09 03:22:40;;;;;;;2.17;1.67;;;;;;;;;;5082180;28;20391;-81
2023/08/09 03:25:06;;;;;;;1.73;1.60;;;;;;;;;;5096426;28;20374;-81
2023/08/09 03:27:32;;;;;;;1.80;1.50;;;;;;;;;;5084906;28;20392;-81
2023/08/09 03:29:58;;;;;;;1.63;1.48;;;;;;;;;;5080906;28;20454;-81
2023/08/09 03:32:24;;;;;;;2.20;1.50;;;;;;;;;;5081838;28;20375;-81
2023/08/09 03:34:50;;;;;;;1.60;1.50;;;;;;;;;;5082106;28;20383;-81
2023/08/09 03:37:16;;;;;;;1.70;1.60;;;;;;;;;;5091398;28;20872;-81
2023/08/09 03:39:42;;;;;;;2.13;1.60;;;;;;;;;;5090394;28;20386;-81
2023/08/09 03:42:08;;;;;;;1.92;1.60;;;;;;;;;;5081095;28;20476;-81
2023/08/09 03:44:34;;;;;;;1.80;1.47;;;;;;;;;;5092957;28;20375;-81
2023/08/09 03:47:00;;;;;;;2.55;1.60;;;;;;;;;;5091047;28;20390;-82
2023/08/09 03:49:26;;;;;;;2.08;1.42;;;;;;;;;;5092434;28;20446;-81
2023/08/09 03:51:52;;;;;;;1.63;1.52;;;;;;;;;;5090554;28;20859;-80
2023/08/09 03:54:18;;;;;;;2.38;1.70;;;;;;;;;;5076973;28;20367;-80
2023/08/09 03:56:44;;;;;;;2.17;1.58;;;;;;;;;;5086004;28;20402;-80
2023/08/09 03:59:10;;;;;;;3.43;1.90;;;;;;;;;;5077111;28;20383;-80
2023/08/09 04:01:36;;;;;;;2.08;1.50;;;;;;;;;;5094923;28;20385;-79
2023/08/09 04:04:03;;;;;;;1.60;1.48;;;;;;;;;;5089818;28;20378;-80
2023/08/09 04:06:29;;;;;;;2.65;1.63;;;;;;;;;;5094928;28;20452;-80
2023/08/09 04:08:55;;;;;;;3.17;1.65;;;;;;;;;;5092004;28;20685;-80
2023/08/09 04:11:21;;;;;;;2.42;1.63;;;;;;;;;;5087916;28;20385;-81
2023/08/09 04:13:47;;;;;;;1.90;1.60;;;;;;;;;;5099551;28;20891;-81
2023/08/09 04:16:13;;;;;;;2.03;1.65;;;;;;;;;;5084922;28;20427;-81
2023/08/09 04:18:39;;;;;;;2.23;1.43;;;;;;;;;;5078594;28;20461;-80
2023/08/09 04:21:06;;;;;;;2.50;1.50;;;;;;;;;;5095410;28;20382;-80
2023/08/09 04:23:32;;;;;;;2.50;1.50;;;;;;;;;;5079633;28;20447;-81
2023/08/09 04:26:00;;;;;;;1.80;1.50;;;;;;;;;;5099803;28;20390;-81
2023/08/09 04:28:27;;;;;;;2.13;1.80;;;;;;;;;;5091455;28;20441;-81
2023/08/09 04:30:53;;;;;;;3.67;1.80;;;;;;;;;;5090922;28;20414;-81
2023/08/09 04:33:19;;;;;;;1.65;1.55;;;;;;;;;;5096283;28;20391;-80
2023/08/09 04:35:45;;;;;;;2.40;1.70;;;;;;;;;;5098375;28;20385;-80
2023/08/09 04:38:10;;;;;;;1.85;1.55;;;;;;;;;;5101694;28;20473;-81
2023/08/09 04:40:37;;;;;;;1.65;1.50;;;;;;;;;;5103174;28;20385;-80
2023/08/09 04:43:03;;;;;;;4.03;1.67;;;;;;;;;;5098415;28;20449;-80
2023/08/09 04:45:30;;;;;;;1.70;1.60;;;;;;;;;;5096907;28;20408;-80
2023/08/09 04:47:57;;;;;;;3.22;1.67;;;;;;;;;;5077194;28;20749;-80
2023/08/09 04:50:23;;;;;;;2.28;1.70;;;;;;;;;;5097566;28;20402;-80
2023/08/09 04:52:50;;;;;;;1.67;1.55;;;;;;;;;;5102808;28;20382;-80
2023/08/09 04:55:16;;;;;;;1.70;1.60;;;;;;;;;;5102391;28;20385;-80
2023/08/09 04:57:42;;;;;;;2.77;1.70;;;;;;;;;;5098417;28;20394;-80
2023/08/09 05:00:10;;;;;;;2.77;1.53;;;;;;;;;;5092284;28;20380;-80
2023/08/09 05:02:36;;;;;;;2.03;1.40;;;;;;;;;;5089528;28;20380;-80
2023/08/09 05:05:11;;;;;;;2.78;1.73;;;;;;;;;;5081422;28;20390;-80
2023/08/09 05:07:38;;;;;;;2.08;1.52;;;;;;;;;;5087963;28;20378;-81
2023/08/09 05:10:05;;;;;;;3.92;1.67;;;;;;;;;;5083217;28;20768;-80
2023/08/09 05:12:31;;;;;;;2.28;1.50;;;;;;;;;;5097739;28;20418;-80
2023/08/09 05:14:57;;;;;;;1.90;1.80;;;;;;;;;;5089994;28;20402;-81
2023/08/09 05:17:23;;;;;;;1.90;1.75;;;;;;;;;;5099413;28;20408;-80
2023/08/09 05:19:49;;;;;;;2.15;1.92;;;;;;;;;;5094569;28;20402;-80
2023/08/09 05:22:15;;;;;;;2.43;1.80;;;;;;;;;;5089052;28;20382;-82
2023/08/09 05:24:41;;;;;;;2.97;1.80;;;;;;;;;;5083075;28;20394;-80
2023/08/09 05:27:08;;;;;;;1.70;1.60;;;;;;;;;;5078990;28;20467;-80
2023/08/09 05:29:34;;;;;;;2.55;1.80;;;;;;;;;;5090662;28;20418;-80
2023/08/09 05:32:00;;;;;;;1.48;1.38;;;;;;;;;;5079750;28;20388;-81
2023/08/09 05:34:26;;;;;;;1.85;1.50;;;;;;;;;;5079915;28;20466;-80
2023/08/09 05:36:52;;;;;;;1.67;1.58;;;;;;;;;;5083975;28;20466;-80
2023/08/09 05:39:19;;;;;;;3.07;1.83;;;;;;;;;;5089889;28;20466;-80
2023/08/09 05:41:45;;;;;;;2.20;1.55;;;;;;;;;;5079777;28;20409;-81
2023/08/09 05:44:11;;;;;;;3.73;2.30;;;;;;;;;;5079859;28;20392;-81
2023/08/09 05:46:37;;;;;;;2.83;2.28;;;;;;;;;;5080261;28;20395;-80
2023/08/09 05:49:03;;;;;;;3.40;2.30;;;;;;;;;;5078972;28;20407;-81
2023/08/09 05:51:31;;;;;;;3.88;2.03;;;;;;;;;;5092784;28;20452;-80
2023/08/09 05:53:57;;;;;;;3.08;1.75;;;;;;;;;;5080314;28;20382;-79
2023/08/09 05:56:23;;;;;;;2.80;1.80;;;;;;;;;;5078979;28;20387;-81
2023/08/09 05:58:49;;;;;;;3.33;1.73;;;;;;;;;;5080582;28;20370;-81
2023/08/09 06:01:16;;;;;;;2.10;1.63;;;;;;;;;;5080258;28;20797;-81
2023/08/09 06:03:42;;;;;;;1.70;1.60;;;;;;;;;;5082959;28;20380;-81
2023/08/09 06:06:08;;;;;;;2.08;1.90;;;;;;;;;;5079186;28;20723;-81
2023/08/09 06:08:34;;;;;;;2.55;1.70;;;;;;;;;;5083598;28;20463;-81
2023/08/09 06:11:00;;;;;;;2.50;2.00;;;;;;;;;;5076622;28;20454;-80
2023/08/09 06:13:26;;;;;;;2.97;2.30;;;;;;;;;;5087841;28;20406;-80
2023/08/09 06:15:52;;;;;;;2.50;1.88;;;;;;;;;;5094054;28;20382;-80
2023/08/09 06:18:18;;;;;;;2.83;1.90;;;;;;;;;;5078253;28;20380;-80
2023/08/09 06:20:44;;;;;;;2.92;2.08;;;;;;;;;;5087771;28;20516;-80
2023/08/09 06:23:11;;;;;;;2.92;1.75;;;;;;;;;;5079689;28;20451;-80
2023/08/09 06:25:37;;;;;;;2.25;1.55;;;;;;;;;;5079057;28;20390;-80
2023/08/09 06:28:03;;;;;;;2.17;1.98;;;;;;;;;;5079253;28;20394;-80
2023/08/09 06:30:30;;;;;;;2.30;1.63;;;;;;;;;;5076599;28;20430;-80
2023/08/09 06:32:56;;;;;;;2.95;1.67;;;;;;;;;;5076576;28;20387;-80
2023/08/09 06:35:22;;;;;;;1.58;1.45;;;;;;;;;;5077221;28;20380;-80
2023/08/09 06:37:48;;;;;;;2.15;1.73;;;;;;;;;;5088708;28;20370;-81
2023/08/09 06:40:16;;;;;;;1.73;1.63;;;;;;;;;;5079249;28;20458;-81
2023/08/09 06:42:42;;;;;;;1.73;1.63;;;;;;;;;;5077921;28;20388;-80
2023/08/09 06:45:08;;;;;;;3.22;2.10;;;;;;;;;;5077935;28;20725;-80
2023/08/09 06:47:34;;;;;;;2.37;1.80;;;;;;;;;;5076444;28;20386;-80
2023/08/09 06:50:00;;;;;;;2.30;2.00;;;;;;;;;;5077169;28;20486;-80
2023/08/09 06:52:27;;;;;;;2.57;1.97;;;;;;;;;;5076534;28;20392;-80
2023/08/09 06:54:53;;;;;;;2.78;2.00;;;;;;;;;;5088715;28;20457;-80
2023/08/09 06:57:19;;;;;;;3.10;2.00;;;;;;;;;;5077956;28;20384;-80
2023/08/09 06:59:47;;;;;;;2.70;2.00;;;;;;;;;;5076807;28;20380;-80
2023/08/09 07:02:13;;;;;;;2.60;1.67;;;;;;;;;;5077089;28;20438;-80
2023/08/09 07:04:39;;;;;;;2.30;1.98;;;;;;;;;;5079302;28;20397;-80
2023/08/09 07:07:05;;;;;;;1.88;1.70;;;;;;;;;;5093187;28;20836;-80
2023/08/09 07:09:31;;;;;;;2.75;1.90;;;;;;;;;;5071665;28;20435;-80
2023/08/09 07:11:57;;;;;;;2.10;1.90;;;;;;;;;;5078800;28;20384;-80
2023/08/09 07:14:23;;;;;;;2.45;2.10;;;;;;;;;;5076325;28;20378;-80
2023/08/09 07:16:49;;;;;;;2.10;1.90;;;;;;;;;;5095501;28;20393;-80
2023/08/09 07:19:15;;;;;;;1.98;1.75;;;;;;;;;;5085039;28;20374;-80
2023/08/09 07:21:41;;;;;;;2.72;1.80;;;;;;;;;;5095032;28;20434;-80
2023/08/09 07:24:07;;;;;;;2.65;1.98;;;;;;;;;;5090286;28;20760;-80
2023/08/09 07:26:33;;;;;;;2.30;1.90;;;;;;;;;;5080888;28;20458;-80
2023/08/09 07:29:00;;;;;;;2.73;2.07;;;;;;;;;;5085637;28;20396;-80
2023/08/09 07:31:26;;;;;;;2.53;2.05;;;;;;;;;;5083659;28;20397;-80
2023/08/09 07:33:52;;;;;;;3.58;2.08;;;;;;;;;;5083251;28;20386;-80
2023/08/09 07:36:18;;;;;;;2.70;2.15;;;;;;;;;;5086672;28;20393;-82
2023/08/09 07:38:44;;;;;;;2.30;1.90;;;;;;;;;;5092557;28;20414;-80
2023/08/09 07:41:11;;;;;;;2.60;2.08;;;;;;;;;;5092031;28;20938;-80
2023/08/09 07:43:37;;;;;;;4.63;2.35;;;;;;;;;;5094213;28;20861;-80
2023/08/09 07:46:05;;;;;;;2.67;2.00;;;;;;;;;;5084480;28;20885;-80
2023/08/09 07:48:32;;;;;;;3.95;2.20;;;;;;;;;;5086829;28;20480;-80
2023/08/09 07:50:58;;;;;;;2.42;2.22;;;;;;;;;;5088976;28;20422;-80
2023/08/09 07:53:23;;;;;;;2.72;1.98;;;;;;;;;;5084098;28;20407;-80
2023/08/09 07:55:50;;;;;;;2.30;2.10;;;;;;;;;;5093855;28;20787;-80
2023/08/09 07:58:16;;;;;;;2.15;1.92;;;;;;;;;;5081821;28;20388;-80
2023/08/09 08:00:42;;;;;;;3.20;2.10;;;;;;;;;;5089254;28;20871;-80
2023/08/09 08:03:09;;;;;;;3.72;2.30;;;;;;;;;;5074558;28;20391;-80
2023/08/09 08:05:36;;;;;;;3.58;2.10;;;;;;;;;;5080918;28;20393;-80
2023/08/09 08:08:02;;;;;;;3.05;2.10;;;;;;;;;;5075672;28;20384;-80
2023/08/09 08:10:29;;;;;;;3.92;2.25;;;;;;;;;;5089863;28;20874;-80
2023/08/09 08:12:55;;;;;;;2.10;1.90;;;;;;;;;;5081480;28;20406;-80
2023/08/09 08:15:22;;;;;;;2.08;1.85;;;;;;;;;;5083569;28;20377;-80
2023/08/09 08:17:51;;;;;;;2.60;2.03;;;;;;;;;;5094150;28;20827;-80
2023/08/09 08:20:19;;;;;;;2.47;2.00;;;;;;;;;;5086236;28;20735;-80
2023/08/09 08:22:45;;;;;;;2.25;2.00;;;;;;;;;;5094979;28;20696;-81
2023/08/09 08:25:19;;;;;;;2.30;2.10;;;;;;;;;;5082153;28;20378;-80
2023/08/09 08:27:46;;;;;;;2.50;2.00;;;;;;;;;;5089854;28;20449;-81
2023/08/09 08:30:20;;;;;;;2.05;1.85;;;;;;;;;;5087898;28;20417;-80
2023/08/09 08:32:47;;;;;;;2.30;2.10;;;;;;;;;;5080229;28;20437;-80
2023/08/09 08:35:13;;;;;;;2.30;1.88;;;;;;;;;;5092393;28;20389;-80
2023/08/09 08:37:40;;;;;;;3.78;2.05;;;;;;;;;;5087113;28;20928;-80
2023/08/09 08:40:08;;;;;;;2.42;1.80;;;;;;;;;;5096476;28;20430;-80
2023/08/09 08:42:34;;;;;;;2.67;2.00;;;;;;;;;;5096481;28;20385;-80
2023/08/09 08:45:03;;;;;;;2.47;1.88;;;;;;;;;;5086569;28;20387;-80
2023/08/09 08:47:29;;;;;;;2.40;1.58;;;;;;;;;;5095037;28;20401;-81
2023/08/09 08:49:56;;;;;;;3.15;2.10;;;;;;;;;;5096072;28;20463;-80
2023/08/09 08:52:24;;;;;;;3.00;1.90;;;;;;;;;;5091107;28;20384;-81
2023/08/09 08:54:50;;;;;;;2.65;1.70;;;;;;;;;;5095215;28;20431;-81
2023/08/09 08:57:16;;;;;;;4.55;1.90;;;;;;;;;;5089323;28;20382;-81
2023/08/09 08:59:42;;;;;;;3.53;1.83;;;;;;;;;;5088489;28;20754;-81
2023/08/09 09:02:08;;;;;;;1.80;1.60;;;;;;;;;;5081447;28;20392;-81
2023/08/09 09:04:36;;;;;;;2.57;1.70;;;;;;;;;;5094959;28;20382;-80
2023/08/09 09:07:02;;;;;;;1.90;1.70;;;;;;;;;;5089050;28;20419;-80
2023/08/09 09:09:28;;;;;;;2.55;1.85;;;;;;;;;;5075190;28;20402;-81
2023/08/09 09:11:54;;;;;;;2.00;1.80;;;;;;;;;;5094438;28;20925;-81
2023/08/09 09:14:20;;;;;;;1.85;1.70;;;;;;;;;;5088424;28;20379;-80
2023/08/09 09:16:46;;;;;;;4.07;1.70;;;;;;;;;;5058724;28;20379;-80
2023/08/09 09:19:12;;;;;;;2.93;1.60;;;;;;;;;;5091923;28;20389;-80
2023/08/09 09:21:39;;;;;;;2.47;1.75;;;;;;;;;;5096195;28;20383;-82
2023/08/09 09:24:07;;;;;;;1.95;1.50;;;;;;;;;;5089490;28;20393;-81
2023/08/09 09:26:33;;;;;;;2.55;1.60;;;;;;;;;;5099836;28;20406;-81
2023/08/09 09:28:59;;;;;;;1.85;1.50;;;;;;;;;;5066467;28;20407;-82
2023/08/09 09:31:35;;;;;;;2.50;1.70;;;;;;;;;;5098005;28;20408;-82
2023/08/09 09:34:01;;;;;;;2.50;1.47;;;;;;;;;;5100054;28;20386;-81
2023/08/09 09:36:27;;;;;;;2.33;1.50;;;;;;;;;;5079026;28;20386;-82
2023/08/09 09:39:08;;;;;;;2.08;1.50;;;;;;;;;;5089513;28;20849;-82
2023/08/09 09:41:34;;;;;;;1.70;1.50;;;;;;;;;;5065661;28;20392;-83
2023/08/09 09:44:02;;;;;;;1.80;1.58;;;;;;;;;;5085731;28;20435;-82
2023/08/09 09:46:28;;;;;;;3.72;1.60;;;;;;;;;;5095166;28;20386;-82
2023/08/09 09:49:01;;;;;;;1.70;1.60;;;;;;;;;;5097555;28;20388;-82
2023/08/09 09:51:28;;;;;;;2.27;1.67;;;;;;;;;;5098173;28;20930;-81
2023/08/09 09:53:54;;;;;;;2.50;1.58;;;;;;;;;;5099381;28;20374;-82
2023/08/09 09:56:20;;;;;;;2.85;1.48;;;;;;;;;;5095918;28;20862;-82
2023/08/09 09:58:47;;;;;;;1.80;1.50;;;;;;;;;;5098365;28;20397;-81
2023/08/09 10:01:18;;;;;;;2.40;1.52;;;;;;;;;;5081238;28;20380;-81
2023/08/09 10:03:44;;;;;;;2.07;1.47;;;;;;;;;;5081836;28;20442;-81
2023/08/09 10:06:14;;;;;;;1.73;1.50;;;;;;;;;;5079748;28;20380;-82
2023/08/09 10:08:42;;;;;;;3.60;2.72;;;;;;;;;;5097534;28;20374;-82
2023/08/09 10:11:09;;;;;;;3.35;1.70;;;;;;;;;;5094412;28;20521;-82
2023/08/09 10:13:35;;;;;;;1.75;1.52;;;;;;;;;;5091636;28;20812;-82
2023/08/09 10:16:03;;;;;;;2.53;1.33;;;;;;;;;;5088509;28;20956;-82
2023/08/09 10:18:46;;;;;;;2.90;1.35;;;;;;;;;;5081774;28;20430;-82
2023/08/09 10:21:14;;;;;;;2.27;1.50;;;;;;;;;;5070777;28;20384;-82
2023/08/09 10:23:53;;;;;;;1.50;1.40;;;;;;;;;;5097907;28;20378;-83
2023/08/09 10:26:25;;;;;;;1.33;1.20;;;;;;;;;;5093704;28;20413;-82
2023/08/09 10:28:51;;;;;;;2.88;1.33;;;;;;;;;;5075773;28;20395;-83
2023/08/09 10:31:36;;;;;;;1.65;1.27;;;;;;;;;;5074745;28;20816;-82
2023/08/09 10:34:08;;;;;;;2.78;1.00;;;;;;;;;;5087264;28;20713;-82
2023/08/09 10:36:34;;;;;;;2.65;1.15;;;;;;;;;;5076221;28;20387;-82
2023/08/09 10:39:10;;;;;;;2.63;1.15;;;;;;;;;;5058277;28;20387;-82
2023/08/09 10:41:36;;;;;;;1.58;1.10;;;;;;;;;;5075275;28;20415;-81
2023/08/09 10:44:04;;;;;;;1.52;1.08;;;;;;;;;;5075145;28;20431;-82
2023/08/09 10:46:34;;;;;;;1.70;1.10;;;;;;;;;;5075234;28;20745;-82
2023/08/09 10:49:00;;;;;;;1.20;1.10;;;;;;;;;;5074828;28;20390;-81
2023/08/09 10:51:27;;;;;;;4.47;1.30;;;;;;;;;;5074961;28;20392;-82
2023/08/09 10:54:03;;;;;;;2.78;1.45;;;;;;;;;;5089244;28;20405;-83
2023/08/09 10:56:33;;;;;;;2.80;1.40;;;;;;;;;;5075359;28;20391;-81
2023/08/09 10:59:06;;;;;;;2.90;1.40;;;;;;;;;;5078893;28;20766;-81
2023/08/09 11:01:33;;;;;;;1.47;1.37;;;;;;;;;;5094671;28;20382;-81
2023/08/09 11:03:59;;;;;;;2.87;1.47;;;;;;;;;;5091907;28;20388;-81
2023/08/09 11:06:32;;;;;;;1.10;1.00;;;;;;;;;;5087552;28;20390;-82
2023/08/09 11:09:05;;;;;;;1.45;1.05;;;;;;;;;;5090641;28;21069;-82
2023/08/09 11:11:31;;;;;;;2.25;1.10;;;;;;;;;;5093529;28;20398;-81
2023/08/09 11:13:57;;;;;;;2.20;1.20;;;;;;;;;;5094487;28;20440;-81
2023/08/09 11:16:23;;;;;;;2.40;1.30;;;;;;;;;;5094169;28;20381;-81
2023/08/09 11:18:58;;;;;;;1.73;1.30;;;;;;;;;;5094571;28;20378;-81
2023/08/09 11:21:24;;;;;;;1.60;1.00;;;;;;;;;;5090221;28;20383;-82
2023/08/09 11:23:57;;;;;;;1.38;1.00;;;;;;;;;;5075351;28;20387;-81
2023/08/09 11:26:23;;;;;;;1.42;1.02;;;;;;;;;;5089494;28;20371;-81
2023/08/09 11:28:49;;;;;;;2.20;1.05;;;;;;;;;;5094826;28;20390;-81
2023/08/09 11:31:15;;;;;;;1.80;1.02;;;;;;;;;;5093840;28;20402;-81
2023/08/09 11:33:41;;;;;;;1.20;1.10;;;;;;;;;;5095126;28;20921;-81
2023/08/09 11:36:11;;;;;;;1.75;0.90;;;;;;;;;;5091456;28;20389;-81
2023/08/09 11:38:37;;;;;;;1.30;1.20;;;;;;;;;;5094403;28;20863;-82
2023/08/09 11:41:03;;;;;;;2.33;1.13;;;;;;;;;;5093845;28;20443;-81
2023/08/09 11:43:29;;;;;;;1.20;1.02;;;;;;;;;;5094827;28;20381;-81
2023/08/09 11:45:57;;;;;;;1.85;1.10;;;;;;;;;;5096072;28;20461;-81
2023/08/09 11:48:41;;;;;;;2.15;1.17;;;;;;;;;;5095366;28;20384;-81
2023/08/09 11:51:12;;;;;;;1.40;0.90;;;;;;;;;;5085732;28;20436;-81
2023/08/09 11:53:39;;;;;;;2.15;1.00;;;;;;;;;;5081504;28;20392;-81
2023/08/09 11:56:06;;;;;;;1.45;1.10;;;;;;;;;;5074991;28;20380;-81
2023/08/09 11:58:38;;;;;;;1.83;1.00;;;;;;;;;;5070948;28;20825;-81
2023/08/09 12:01:13;;;;;;;2.10;1.27;;;;;;;;;;5095515;28;20382;-81
2023/08/09 12:03:40;;;;;;;1.88;1.00;;;;;;;;;;5093986;28;20835;-81
2023/08/09 12:06:06;;;;;;;1.83;1.10;;;;;;;;;;5075897;28;20384;-81
2023/08/09 12:08:33;;;;;;;2.47;0.90;;;;;;;;;;5093882;28;20385;-81
2023/08/09 12:10:59;;;;;;;1.42;1.00;;;;;;;;;;5078189;28;20461;-81
2023/08/09 12:13:25;;;;;;;1.58;1.08;;;;;;;;;;5074596;28;20384;-81
2023/08/09 12:15:51;;;;;;;1.50;1.00;;;;;;;;;;5080530;28;20378;-81
2023/08/09 12:18:17;;;;;;;3.05;0.85;;;;;;;;;;5094570;28;20406;-81
2023/08/09 12:20:43;;;;;;;1.25;0.90;;;;;;;;;;5094073;28;20373;-81
2023/08/09 12:23:09;;;;;;;3.53;1.00;;;;;;;;;;5076104;28;20864;-81
2023/08/09 12:25:34;;;;;;;2.27;1.00;;;;;;;;;;5074725;28;20407;-81
2023/08/09 12:28:00;;;;;;;2.08;1.20;;;;;;;;;;5074213;28;20380;-81
2023/08/09 12:30:27;;;;;;;1.92;1.10;;;;;;;;;;5074413;28;20411;-81
2023/08/09 12:32:53;;;;;;;1.98;1.05;;;;;;;;;;5074230;28;20801;-81
2023/08/09 12:35:19;;;;;;;1.20;0.90;;;;;;;;;;5056507;28;20391;-81
2023/08/09 12:37:46;;;;;;;2.28;1.20;;;;;;;;;;5074626;28;20691;-81
2023/08/09 12:40:13;;;;;;;1.45;0.98;;;;;;;;;;5074263;28;20376;-81
2023/08/09 12:42:41;;;;;;;2.20;1.23;;;;;;;;;;5074535;28;20390;-81
2023/08/09 12:45:08;;;;;;;1.27;1.00;;;;;;;;;;5075401;28;20387;-81
2023/08/09 12:47:34;;;;;;;1.40;1.00;;;;;;;;;;5074927;28;20402;-82
2023/08/09 12:50:00;;;;;;;1.30;0.80;;;;;;;;;;5073797;28;20451;-81
2023/08/09 12:52:26;;;;;;;1.70;1.20;;;;;;;;;;5073874;28;20398;-81
2023/08/09 12:54:52;;;;;;;3.40;1.20;;;;;;;;;;5076624;28;20829;-81
2023/08/09 12:57:21;;;;;;;2.20;1.13;;;;;;;;;;5077151;28;20383;-81
2023/08/09 12:59:47;;;;;;;2.03;1.03;;;;;;;;;;5077813;28;20384;-81
2023/08/09 13:02:13;;;;;;;1.30;0.90;;;;;;;;;;5077062;28;20482;-81
2023/08/09 13:04:40;;;;;;;2.47;0.95;;;;;;;;;;5079688;28;20433;-81
2023/08/09 13:07:06;;;;;;;1.25;1.10;;;;;;;;;;5085628;28;20389;-81
2023/08/09 13:09:33;;;;;;;1.57;1.20;;;;;;;;;;5077131;28;20403;-81
2023/08/09 13:12:05;;;;;;;1.13;0.95;;;;;;;;;;5078147;28;20938;-81
2023/08/09 13:14:31;;;;;;;2.00;1.10;;;;;;;;;;5077185;28;20380;-81
2023/08/09 13:16:57;;;;;;;1.13;0.95;;;;;;;;;;5077086;28;20387;-81
2023/08/09 13:19:23;;;;;;;1.52;0.93;;;;;;;;;;5081018;28;20385;-81
2023/08/09 13:21:49;;;;;;;3.40;0.87;;;;;;;;;;5096500;28;20378;-81
2023/08/09 13:24:15;;;;;;;1.42;0.73;;;;;;;;;;5097008;28;20378;-81
2023/08/09 13:26:41;;;;;;;1.85;0.90;;;;;;;;;;5092571;28;20383;-81
2023/08/09 13:29:07;;;;;;;1.13;0.93;;;;;;;;;;5093800;28;20977;-81
2023/08/09 13:31:33;;;;;;;1.40;0.90;;;;;;;;;;5080143;28;20471;-81
2023/08/09 13:33:59;;;;;;;1.80;0.90;;;;;;;;;;5077224;28;20377;-81
2023/08/09 13:36:25;;;;;;;1.80;0.90;;;;;;;;;;5076623;28;20452;-81
2023/08/09 13:38:51;;;;;;;1.33;0.85;;;;;;;;;;5075359;28;20395;-81
2023/08/09 13:41:18;;;;;;;1.45;0.90;;;;;;;;;;5089230;28;20447;-81
2023/08/09 13:43:44;;;;;;;1.65;1.10;;;;;;;;;;5081834;28;20425;-81
2023/08/09 13:46:10;;;;;;;2.03;0.85;;;;;;;;;;5084723;28;20459;-81
2023/08/09 13:48:36;;;;;;;1.67;0.80;;;;;;;;;;5076582;28;20398;-81
2023/08/09 13:51:02;;;;;;;1.92;1.13;;;;;;;;;;5076391;28;20414;-81
2023/08/09 13:53:28;;;;;;;2.15;1.05;;;;;;;;;;5076661;28;20434;-81
2023/08/09 13:55:55;;;;;;;1.38;1.00;;;;;;;;;;5076847;28;20886;-81
2023/08/09 13:58:21;;;;;;;3.70;1.00;;;;;;;;;;5076642;28;20872;-83
2023/08/09 14:00:47;;;;;;;1.60;1.00;;;;;;;;;;5091151;28;20402;-83
2023/08/09 14:03:13;;;;;;;1.25;0.95;;;;;;;;;;5078794;28;20424;-82
2023/08/09 14:05:42;;;;;;;1.30;1.00;;;;;;;;;;5091821;28;20421;-81
2023/08/09 14:08:08;;;;;;;1.75;1.05;;;;;;;;;;5081161;28;20459;-82
2023/08/09 14:10:38;;;;;;;3.80;1.60;;;;;;;;;;5092966;28;20408;-82
2023/08/09 14:13:04;;;;;;;2.67;1.10;;;;;;;;;;5085442;28;20404;-82
2023/08/09 14:15:33;;;;;;;1.35;1.10;;;;;;;;;;5076329;28;20368;-82
2023/08/09 14:17:59;;;;;;;1.20;1.00;;;;;;;;;;5076355;28;20430;-82
2023/08/09 14:20:26;;;;;;;1.33;1.05;;;;;;;;;;5085161;28;20382;-82
2023/08/09 14:22:52;;;;;;;1.38;0.90;;;;;;;;;;5082421;28;20395;-83
2023/08/09 14:25:23;;;;;;;1.30;1.10;;;;;;;;;;5089280;28;20376;-83
2023/08/09 14:27:49;;;;;;;1.10;1.00;;;;;;;;;;5076485;28;20380;-82
2023/08/09 14:30:15;;;;;;;1.17;1.00;;;;;;;;;;5075590;28;20408;-82
2023/08/09 14:32:42;;;;;;;1.70;1.10;;;;;;;;;;5075783;28;20387;-83
2023/08/09 14:35:11;;;;;;;1.55;1.10;;;;;;;;;;5075440;28;20381;-81
2023/08/09 14:37:38;;;;;;;1.63;1.20;;;;;;;;;;5075648;28;20383;-82
2023/08/09 14:40:07;;;;;;;1.77;1.10;;;;;;;;;;5075023;28;20760;-82
2023/08/09 14:42:40;;;;;;;1.97;1.40;;;;;;;;;;5065974;28;20428;-82